Time;durP1;ratioP1;P1;durP2;ratioP2;P2;SDS_P1;SDS_P2;PMS_P1;PMS_P2;Temp;Humidity;BMP_temperature;BMP_pressure;BME280_temperature;BME280_humidity;BME280_pressure;Samples;Min_cycle;Max_cycle;Signal;HPM_P1;HPM_P2
2023/10/13 00:00:40;;;;;;;;;;;;;;;21.38;36.14;101154.25;102987;1288;62254;-81
2023/10/13 00:03:06;;;;;;;;;;;;;;;21.38;36.23;101150.66;103225;1288;61376;-81
2023/10/13 00:05:31;;;;;;;;;;;;;;;21.38;36.06;101151.55;103084;1288;61382;-83
2023/10/13 00:08:00;;;;;;;;;;;;;;;21.38;36.01;101153.69;103209;1293;61319;-83
2023/10/13 00:10:28;;;;;;;;;;;;;;;21.38;36.05;101154.95;103233;1288;61276;-81
2023/10/13 00:13:05;;;;;;;;;;;;;;;21.38;36.10;101159.43;103028;1288;62287;-80
2023/10/13 00:15:38;;;;;;;;;;;;;;;21.38;36.09;101153.17;103139;1293;73331;-82
2023/10/13 00:18:11;;;;;;;;;;;;;;;21.38;36.16;101152.09;103177;1288;74544;-81
2023/10/13 00:20:39;;;;;;;;;;;;;;;21.38;36.01;101148.34;103281;1288;61400;-81
2023/10/13 00:23:05;;;;;;;;;;;;;;;21.38;35.98;101147.08;103254;1287;61313;-80
2023/10/13 00:25:43;;;;;;;;;;;;;;;21.38;36.25;101147.08;103249;1288;72493;-80
2023/10/13 00:28:09;;;;;;;;;;;;;;;21.38;36.20;101150.29;102933;1288;75628;-82
2023/10/13 00:30:34;;;;;;;;;;;;;;;21.38;36.12;101150.69;103010;1291;61822;-80
2023/10/13 00:33:03;;;;;;;;;;;;;;;21.38;36.04;101156.20;103237;1290;61374;-82
2023/10/13 00:35:29;;;;;;;;;;;;;;;21.38;36.14;101156.20;103263;1288;73289;-81
2023/10/13 00:37:55;;;;;;;;;;;;;;;21.38;36.15;101157.13;103283;1291;61412;-81
2023/10/13 00:46:08;;;;;;;;;;;;;;;21.38;36.14;101153.36;102145;1303;71402;-81
2023/10/13 00:48:35;;;;;;;;;;;;;;;21.38;35.94;101153.73;102089;1300;74473;-81
2023/10/13 00:51:06;;;;;;;;;;;;;;;21.38;36.07;101154.25;102219;1305;61426;-81
2023/10/13 00:53:39;;;;;;;;;;;;;;;21.38;36.07;101148.51;102132;1305;61968;-81
2023/10/13 00:56:09;;;;;;;;;;;;;;;21.38;35.96;101150.81;102157;1303;73539;-81
2023/10/13 00:58:34;;;;;;;;;;;;;;;21.38;36.03;101147.79;102174;1300;75498;-80
2023/10/13 01:01:18;;;;;;;;;;;;;;;21.38;36.12;101147.99;102162;1300;62188;-81
2023/10/13 01:03:44;;;;;;;;;;;;;;;21.38;36.03;101142.82;102120;1300;61525;-82
2023/10/13 01:06:12;;;;;;;;;;;;;;;21.38;36.09;101142.64;102203;1305;61252;-82
2023/10/13 01:08:38;;;;;;;;;;;;;;;21.38;36.03;101140.29;102158;1299;75509;-81
2023/10/13 01:11:07;;;;;;;;;;;;;;;21.38;36.17;101139.96;102150;1304;61543;-81
2023/10/13 01:13:36;;;;;;;;;;;;;;;21.37;36.09;101133.67;102202;1299;61383;-81
2023/10/13 01:16:04;;;;;;;;;;;;;;;21.37;36.10;101127.98;102259;1299;72526;-83
2023/10/13 01:18:30;;;;;;;;;;;;;;;21.37;36.04;101126.92;102089;1299;74468;-81
2023/10/13 01:20:58;;;;;;;;;;;;;;;21.37;36.05;101130.67;102492;1297;61476;-80
2023/10/13 01:23:28;;;;;;;;;;;;;;;21.37;36.12;101131.04;102648;1291;62709;-81
2023/10/13 01:25:56;;;;;;;;;;;;;;;21.37;36.20;101134.61;103259;1293;73516;-80
2023/10/13 01:28:23;;;;;;;;;;;;;;;21.37;36.12;101140.01;102903;1293;73273;-83
2023/10/13 01:30:52;;;;;;;;;;;;;;;21.37;36.10;101135.86;103258;1288;61401;-82
2023/10/13 01:33:26;;;;;;;;;;;;;;;21.37;36.12;101137.48;103022;1288;61436;-80
2023/10/13 01:35:52;;;;;;;;;;;;;;;21.37;36.14;101137.84;103488;1292;72449;-81
2023/10/13 01:38:18;;;;;;;;;;;;;;;21.37;36.10;101131.05;103152;1288;74199;-81
2023/10/13 01:40:46;;;;;;;;;;;;;;;21.37;36.19;101135.33;103237;1288;61271;-81
2023/10/13 01:43:11;;;;;;;;;;;;;;;21.37;36.04;101134.27;103113;1289;62196;-80
2023/10/13 01:45:49;;;;;;;;;;;;;;;21.37;35.99;101136.42;103206;1291;61408;-81
2023/10/13 01:48:21;;;;;;;;;;;;;;;21.37;36.24;101137.17;103215;1288;73413;-81
2023/10/13 01:50:47;;;;;;;;;;;;;;;21.37;36.02;101133.91;103156;1291;61338;-82
2023/10/13 01:53:17;;;;;;;;;;;;;;;21.37;36.10;101130.71;103005;1288;62431;-83
2023/10/13 01:55:43;;;;;;;;;;;;;;;21.36;36.33;101124.27;103220;1293;73308;-81
2023/10/13 01:58:15;;;;;;;;;;;;;;;21.37;36.05;101125.69;103080;1288;62555;-83
2023/10/13 02:00:42;;;;;;;;;;;;;;;21.36;36.20;101124.99;103240;1291;61344;-82
2023/10/13 02:03:14;;;;;;;;;;;;;;;21.37;36.09;101127.49;103071;1288;61291;-83
2023/10/13 02:05:43;;;;;;;;;;;;;;;21.36;36.06;101132.14;103099;1290;73198;-83
2023/10/13 02:08:17;;;;;;;;;;;;;;;21.37;36.15;101136.43;102876;1288;74583;-82
2023/10/13 02:10:43;;;;;;;;;;;;;;;21.36;36.08;101138.23;103269;1292;61308;-81
2023/10/13 02:13:15;;;;;;;;;;;;;;;21.36;36.07;101138.96;103209;1288;61909;-82
2023/10/13 02:15:42;;;;;;;;;;;;;;;21.36;36.07;101139.67;103193;1289;73469;-80
2023/10/13 02:18:09;;;;;;;;;;;;;;;21.36;36.08;101142.35;103219;1288;74585;-80
2023/10/13 02:20:41;;;;;;;;;;;;;;;21.36;36.06;101142.71;103008;1288;360837;-81
2023/10/13 02:23:10;;;;;;;;;;;;;;;21.36;36.20;101145.41;103164;1288;61866;-81
2023/10/13 02:25:42;;;;;;;;;;;;;;;21.37;36.14;101144.85;103237;1288;72523;-81
2023/10/13 02:28:21;;;;;;;;;;;;;;;21.36;36.10;101142.02;103203;1288;74314;-81
2023/10/13 02:30:50;;;;;;;;;;;;;;;21.36;36.18;101138.84;103240;1288;61902;-82
2023/10/13 02:33:21;;;;;;;;;;;;;;;21.36;36.25;101143.29;103208;1288;61408;-81
2023/10/13 02:35:53;;;;;;;;;;;;;;;21.36;36.11;101141.50;103210;1287;72504;-82
2023/10/13 02:38:26;;;;;;;;;;;;;;;21.36;36.15;101140.77;103207;1293;74528;-82
2023/10/13 02:40:54;;;;;;;;;;;;;;;21.36;36.12;101135.59;103048;1288;61296;-83
2023/10/13 02:43:22;;;;;;;;;;;;;;;21.36;35.99;101135.08;103174;1292;61828;-82
2023/10/13 02:45:59;;;;;;;;;;;;;;;21.36;36.10;101135.56;103149;1292;72404;-82
2023/10/13 02:48:45;;;;;;;;;;;;;;;21.35;36.14;101130.61;102976;1288;74460;-81
2023/10/13 02:51:17;;;;;;;;;;;;;;;21.36;36.06;101131.10;103208;1293;61290;-83
2023/10/13 02:53:47;;;;;;;;;;;;;;;21.36;36.11;101130.59;102956;1288;61332;-80
2023/10/13 02:56:13;;;;;;;;;;;;;;;21.36;36.16;101134.34;103239;1291;72835;-82
2023/10/13 02:58:45;;;;;;;;;;;;;;;21.35;36.19;101131.33;102899;1293;74356;-81
2023/10/13 03:01:17;;;;;;;;;;;;;;;21.35;36.10;101129.56;102964;1291;61379;-80
2023/10/13 03:03:43;;;;;;;;;;;;;;;21.36;36.16;101131.68;103204;1292;61379;-81
2023/10/13 03:06:11;;;;;;;;;;;;;;;21.36;36.08;101133.10;103064;1288;72921;-81
2023/10/13 03:08:38;;;;;;;;;;;;;;;21.35;36.13;101130.80;103134;1288;74429;-80
2023/10/13 03:11:05;;;;;;;;;;;;;;;21.35;36.11;101129.58;103204;1288;62452;-81
2023/10/13 03:13:33;;;;;;;;;;;;;;;21.35;36.15;101132.25;103239;1292;61892;-82
2023/10/13 03:15:59;;;;;;;;;;;;;;;21.36;36.10;101136.15;103090;1293;71386;-81
2023/10/13 03:18:26;;;;;;;;;;;;;;;21.35;36.06;101132.77;103139;1293;61432;-81
2023/10/13 03:20:56;;;;;;;;;;;;;;;21.35;36.18;101127.23;103166;1288;62013;-84
2023/10/13 03:23:24;;;;;;;;;;;;;;;21.35;36.15;101119.38;103087;1288;62539;-81
2023/10/13 03:25:50;;;;;;;;;;;;;;;21.34;36.20;101122.84;103036;1293;73713;-81
2023/10/13 03:28:18;;;;;;;;;;;;;;;21.34;36.18;101122.30;103202;1292;61454;-81
2023/10/13 03:30:43;;;;;;;;;;;;;;;21.33;36.07;101119.48;103100;1289;61378;-80
2023/10/13 03:33:13;;;;;;;;;;;;;;;21.33;36.23;101116.29;103213;1292;61380;-82
2023/10/13 03:35:43;;;;;;;;;;;;;;;21.33;36.13;101113.27;103044;1288;72517;-81
2023/10/13 03:38:18;;;;;;;;;;;;;;;21.33;36.18;101105.21;103234;1293;73313;-80
2023/10/13 03:41:07;;;;;;;;;;;;;;;21.32;36.18;101102.54;103143;1288;61949;-81
2023/10/13 03:43:34;;;;;;;;;;;;;;;21.32;36.16;101106.84;103218;1293;62425;-83
2023/10/13 03:46:01;;;;;;;;;;;;;;;21.32;36.19;101105.07;103193;1288;72437;-83
2023/10/13 03:51:08;;;;;;;;;;;;;;;21.31;35.97;101106.40;103430;1288;61377;-81
2023/10/13 03:53:33;;;;;;;;;;;;;;;21.30;36.15;101110.76;102783;1288;62682;-81
2023/10/13 03:56:12;;;;;;;;;;;;;;;21.29;36.09;101112.10;102783;1288;61516;-81
2023/10/13 03:58:41;;;;;;;;;;;;;;;21.27;35.97;101115.24;103092;1294;74282;-82
2023/10/13 04:01:09;;;;;;;;;;;;;;;21.25;36.11;101118.17;103186;1287;61911;-81
2023/10/13 04:03:36;;;;;;;;;;;;;;;21.24;35.92;101122.08;103179;1294;62540;-81
2023/10/13 04:06:08;;;;;;;;;;;;;;;21.22;35.97;101120.91;103264;1289;72524;-81
2023/10/13 04:08:49;;;;;;;;;;;;;;;21.22;35.92;101123.65;103185;1289;75063;-83
2023/10/13 04:16:52;;;;;;;;;;;;;;;21.19;35.97;101120.09;102555;1293;73589;-81
2023/10/13 04:19:23;;;;;;;;;;;;;;;21.19;35.89;101117.21;102673;1294;75363;-80
2023/10/13 04:21:57;;;;;;;;;;;;;;;21.18;35.90;101112.84;102972;1294;63563;-81
2023/10/13 04:24:38;;;;;;;;;;;;;;;21.17;35.93;101119.30;102706;1298;61370;-82
2023/10/13 04:29:55;;;;;;;;;;;;;;;21.15;35.90;101126.21;102618;1294;75385;-81
2023/10/13 04:32:32;;;;;;;;;;;;;;;21.15;35.89;101137.51;102518;1299;61419;-82
2023/10/13 04:38:01;;;;;;;;;;;;;;;21.12;35.98;101151.66;102591;1294;72561;-83
2023/10/13 04:40:28;;;;;;;;;;;;;;;21.10;35.90;101151.78;102852;1294;75470;-80
2023/10/13 04:42:56;;;;;;;;;;;;;;;21.09;35.86;101149.17;103101;1296;61277;-82
2023/10/13 04:50:46;;;;;;;;;;;;;;;21.03;35.89;101144.88;103478;1298;74527;-81
2023/10/13 04:53:33;;;;;;;;;;;;;;;21.02;36.08;101145.73;103334;1297;62901;-80
2023/10/13 05:04:22;;;;;;;;;;;;;;;20.92;36.11;101155.09;104370;1286;61302;-82
2023/10/13 06:28:45;;;;;;;;;;;;;;;20.78;36.51;101264.77;103531;1296;74439;-82
2023/10/13 06:31:21;;;;;;;;;;;;;;;20.78;36.55;101272.12;103394;1288;61191;-82
2023/10/13 06:33:47;;;;;;;;;;;;;;;20.78;36.44;101276.05;103939;1288;61413;-82
2023/10/13 06:36:12;;;;;;;;;;;;;;;20.78;36.59;101277.66;104091;1291;61900;-81
2023/10/13 06:38:38;;;;;;;;;;;;;;;20.79;36.38;101272.24;104323;1293;61356;-81
2023/10/13 06:41:07;;;;;;;;;;;;;;;20.79;36.60;101272.95;104256;1288;60393;-81
2023/10/13 06:43:39;;;;;;;;;;;;;;;20.80;36.45;101265.55;104206;1286;61469;-82
2023/10/13 06:46:07;;;;;;;;;;;;;;;20.80;36.45;101258.56;103976;1293;72563;-82
2023/10/13 06:48:35;;;;;;;;;;;;;;;20.80;36.58;101251.04;104265;1287;75811;-83
2023/10/13 06:51:12;;;;;;;;;;;;;;;20.81;36.52;101245.27;104375;1293;62377;-82
2023/10/13 06:53:38;;;;;;;;;;;;;;;20.81;36.51;101240.77;104465;1292;61454;-82
2023/10/13 06:56:06;;;;;;;;;;;;;;;20.81;36.57;101246.02;104536;1293;61367;-82
2023/10/13 06:58:43;;;;;;;;;;;;;;;20.82;36.88;101253.45;104674;1290;75367;-84
2023/10/13 07:01:14;;;;;;;;;;;;;;;20.85;36.83;101256.48;104415;1290;61295;-83
2023/10/13 07:03:41;;;;;;;;;;;;;;;20.87;37.14;101261.34;104490;1289;61664;-83
2023/10/13 07:06:11;;;;;;;;;;;;;;;20.91;37.27;101271.86;104637;1292;61361;-83
2023/10/13 07:08:37;;;;;;;;;;;;;;;20.93;37.18;101274.21;104542;1292;75554;-82
2023/10/13 07:11:13;;;;;;;;;;;;;;;20.95;37.22;101273.56;104287;1287;61194;-80
2023/10/13 07:13:43;;;;;;;;;;;;;;;20.96;37.23;101270.65;104487;1287;61215;-81
2023/10/13 07:16:12;;;;;;;;;;;;;;;20.95;37.36;101269.98;104605;1289;72329;-81
2023/10/13 07:18:49;;;;;;;;;;;;;;;20.94;37.29;101283.97;103961;1292;61856;-82
2023/10/13 07:21:15;;;;;;;;;;;;;;;20.93;37.16;101286.35;104053;1288;61173;-82
2023/10/13 07:23:43;;;;;;;;;;;;;;;20.95;37.35;101284.85;104293;1294;62264;-81
2023/10/13 07:26:08;;;;;;;;;;;;;;;20.95;37.15;101279.63;104052;1292;73367;-81
2023/10/13 07:28:43;;;;;;;;;;;;;;;20.96;37.20;101276.88;104213;1293;61379;-84
2023/10/13 07:31:15;;;;;;;;;;;;;;;20.97;37.25;101277.57;104229;1288;61360;-81
2023/10/13 07:33:41;;;;;;;;;;;;;;;20.97;37.21;101283.81;104379;1287;64394;-81
2023/10/13 07:36:18;;;;;;;;;;;;;;;20.98;37.32;101285.38;103840;1289;61460;-82
2023/10/13 07:38:48;;;;;;;;;;;;;;;20.97;37.21;101283.06;103796;1291;74330;-82
2023/10/13 07:41:15;;;;;;;;;;;;;;;20.98;37.30;101282.85;103945;1286;61277;-81
2023/10/13 07:43:41;;;;;;;;;;;;;;;20.98;37.42;101277.48;104787;1288;61523;-83
2023/10/13 07:46:09;;;;;;;;;;;;;;;20.98;37.34;101274.81;104348;1287;61261;-82
2023/10/13 07:48:38;;;;;;;;;;;;;;;20.97;37.25;101270.23;104194;1289;75279;-81
2023/10/13 07:51:04;;;;;;;;;;;;;;;20.97;37.33;101271.27;104368;1290;61146;-83
2023/10/13 07:53:40;;;;;;;;;;;;;;;20.98;37.36;101274.61;104329;1290;61289;-83
2023/10/13 07:56:11;;;;;;;;;;;;;;;20.98;37.61;101278.75;104759;1290;72370;-81
2023/10/13 08:01:25;;;;;;;;;;;;;;;21.01;37.68;101277.28;104484;1286;61160;-83
2023/10/13 08:04:12;;;;;;;;;;;;;;;21.02;37.78;101283.85;104284;1289;61288;-81
2023/10/13 08:06:37;;;;;;;;;;;;;;;20.99;37.95;101284.41;104399;1291;72578;-82
2023/10/13 08:09:09;;;;;;;;;;;;;;;21.00;37.90;101290.44;104238;1288;61596;-81
2023/10/13 08:11:39;;;;;;;;;;;;;;;21.02;38.15;101295.49;104193;1293;61677;-81
2023/10/13 08:14:12;;;;;;;;;;;;;;;21.04;38.11;101293.75;104424;1288;62352;-81
2023/10/13 08:19:20;;;;;;;;;;;;;;;21.04;38.18;101298.73;104183;1288;75588;-81
2023/10/13 08:22:09;;;;;;;;;;;;;;;;;;;;;
2023/10/13 08:32:54;;;;;;;;;;;;;;;21.05;38.36;101278.44;103707;1295;61199;-81
2023/10/13 08:35:26;;;;;;;;;;;;;;;21.06;38.16;101276.11;103764;1294;61224;-81
2023/10/13 08:40:43;;;;;;;;;;;;;;;21.10;38.46;101286.20;103683;1297;75202;-82
2023/10/13 08:43:11;;;;;;;;;;;;;;;21.13;38.64;101288.34;104256;1303;61289;-81
2023/10/13 09:04:38;;;;;;;;;;;;;;;;;;;;;
2023/10/13 09:07:09;;;;;;;;;;;;;;;21.18;39.02;101304.36;103643;1304;60291;-79
2023/10/13 09:12:20;;;;;;;;;;;;;;;21.24;39.04;101301.58;103732;1301;74441;-80
2023/10/13 09:14:58;;;;;;;;;;;;;;;21.23;39.02;101298.63;103983;1299;59939;-80
2023/10/13 09:20:42;;;;;;;;;;;;;;;;;;;;;
2023/10/13 09:23:08;;;;;;;;;;;;;;;21.14;38.79;101313.52;103498;1303;75524;-81
2023/10/13 09:25:37;;;;;;;;;;;;;;;21.10;38.74;101312.83;103400;1303;61256;-80
2023/10/13 09:28:10;;;;;;;;;;;;;;;21.06;38.88;101314.16;103260;1309;61293;-80
2023/10/13 09:30:44;;;;;;;;;;;;;;;21.06;38.75;101315.96;103172;1301;72593;-80
2023/10/13 09:33:15;;;;;;;;;;;;;;;21.04;38.78;101317.00;103209;1305;75155;-80
2023/10/13 09:35:48;;;;;;;;;;;;;;;21.04;38.86;101313.42;103182;1302;61511;-82
2023/10/13 09:38:15;;;;;;;;;;;;;;;21.04;38.73;101310.71;103146;1300;61427;-82
2023/10/13 09:41:01;;;;;;;;;;;;;;;21.06;38.85;101314.77;103341;1303;61538;-82
2023/10/13 09:43:28;;;;;;;;;;;;;;;21.07;38.82;101316.98;103155;1309;74719;-82
2023/10/13 09:46:03;;;;;;;;;;;;;;;21.11;38.75;101311.95;103883;1297;61907;-82
2023/10/13 09:48:33;;;;;;;;;;;;;;;21.14;38.58;101311.05;103780;1297;61182;-82
2023/10/13 09:51:00;;;;;;;;;;;;;;;21.16;38.63;101306.08;103443;1296;73602;-82
2023/10/13 09:53:25;;;;;;;;;;;;;;;21.20;38.58;101302.07;103819;1301;61274;-82
2023/10/13 09:56:13;;;;;;;;;;;;;;;21.23;38.60;101296.30;104771;1288;61370;-82
2023/10/13 09:59:08;;;;;;;;;;;;;;;21.27;38.49;101290.14;103945;1295;61291;-82
2023/10/13 10:01:37;;;;;;;;;;;;;;;21.31;38.22;101293.46;104723;1294;72516;-80
2023/10/13 10:04:13;;;;;;;;;;;;;;;21.34;37.80;101288.98;104681;1297;74382;-80
2023/10/13 10:06:40;;;;;;;;;;;;;;;21.36;37.90;101288.63;104890;1295;60277;-81
2023/10/13 10:09:12;;;;;;;;;;;;;;;21.39;37.83;101283.96;104666;1295;60287;-82
2023/10/13 10:11:56;;;;;;;;;;;;;;;21.44;37.90;101280.28;105470;1295;73574;-80
2023/10/13 10:14:42;;;;;;;;;;;;;;;21.47;38.03;101274.67;104633;1294;74340;-80
2023/10/13 10:17:08;;;;;;;;;;;;;;;21.49;38.03;101274.02;104272;1297;61411;-80
2023/10/13 10:19:45;;;;;;;;;;;;;;;21.51;38.15;101268.00;104428;1294;61347;-80
2023/10/13 10:22:17;;;;;;;;;;;;;;;21.53;38.21;101262.88;105044;1294;72625;-80
2023/10/13 10:24:43;;;;;;;;;;;;;;;21.54;38.11;101263.72;104109;1295;74330;-81
2023/10/13 10:27:21;;;;;;;;;;;;;;;21.55;38.03;101263.61;103951;1297;61506;-80
2023/10/13 10:29:53;;;;;;;;;;;;;;;21.57;37.96;101264.95;104057;1294;60070;-80
2023/10/13 10:32:19;;;;;;;;;;;;;;;21.58;37.90;101269.14;104283;1294;72371;-80
2023/10/13 10:34:44;;;;;;;;;;;;;;;21.60;37.85;101275.09;103809;1297;61504;-82
2023/10/13 10:37:10;;;;;;;;;;;;;;;21.61;37.88;101275.78;103997;1288;61366;-80
2023/10/13 10:39:49;;;;;;;;;;;;;;;21.62;37.92;101276.63;104472;1288;61304;-81
2023/10/13 10:42:15;;;;;;;;;;;;;;;21.63;37.93;101277.82;104431;1288;73342;-81
2023/10/13 10:44:43;;;;;;;;;;;;;;;21.63;37.96;101276.00;104584;1288;61405;-82
2023/10/13 10:47:30;;;;;;;;;;;;;;;21.64;37.89;101274.90;104536;1288;61344;-80
2023/10/13 10:49:57;;;;;;;;;;;;;;;21.66;37.97;101274.05;104435;1288;61286;-81
2023/10/13 10:52:23;;;;;;;;;;;;;;;21.66;38.02;101271.66;104352;1287;72466;-80
2023/10/13 10:54:58;;;;;;;;;;;;;;;21.69;38.19;101274.55;104643;1290;61372;-81
2023/10/13 10:57:28;;;;;;;;;;;;;;;21.70;38.24;101271.77;104434;1288;61254;-81
2023/10/13 11:00:14;;;;;;;;;;;;;;;21.71;38.29;101273.88;104423;1293;61715;-82
2023/10/13 11:02:40;;;;;;;;;;;;;;;21.72;38.24;101267.20;105344;1288;72334;-81
2023/10/13 11:05:09;;;;;;;;;;;;;;;21.73;38.60;101260.08;105452;1287;60112;-82
2023/10/13 11:07:35;;;;;;;;;;;;;;;21.76;38.79;101257.95;106012;1288;60217;-81
2023/10/13 11:10:12;;;;;;;;;;;;;;;21.79;38.88;101259.23;106067;1288;59980;-82
2023/10/13 11:12:39;;;;;;;;;;;;;;;21.79;38.89;101264.22;105980;1287;72516;-82
2023/10/13 11:15:13;;;;;;;;;;;;;;;21.80;38.88;101269.70;106129;1288;74560;-81
2023/10/13 11:17:44;;;;;;;;;;;;;;;21.80;38.80;101270.75;106222;1287;60837;-81
2023/10/13 11:20:16;;;;;;;;;;;;;;;21.81;39.02;101271.77;106101;1288;60213;-81
2023/10/13 11:22:47;;;;;;;;;;;;;;;21.83;39.09;101271.11;104936;1292;72457;-81
2023/10/13 11:25:35;;;;;;;;;;;;;;;21.85;38.85;101271.70;104768;1286;74814;-80
2023/10/13 11:28:16;;;;;;;;;;;;;;;21.85;38.76;101269.56;104621;1287;62159;-81
2023/10/13 11:30:41;;;;;;;;;;;;;;;21.86;38.87;101266.26;104377;1288;61308;-80
2023/10/13 11:33:07;;;;;;;;;;;;;;;21.87;38.88;101262.60;104249;1291;63066;-80
2023/10/13 11:35:49;;;;;;;;;;;;;;;21.87;38.95;101264.54;104058;1289;61324;-80
2023/10/13 11:38:24;;;;;;;;;;;;;;;21.86;38.95;101262.31;104377;1288;61354;-81
2023/10/13 11:41:06;;;;;;;;;;;;;;;21.84;38.86;101264.02;104230;1288;61372;-80
2023/10/13 11:51:44;;;;;;;;;;;;;;;21.79;39.17;101264.95;104358;1290;61240;-81
2023/10/13 11:54:21;;;;;;;;;;;;;;;21.80;39.09;101264.70;106083;1287;73587;-81
2023/10/13 11:56:47;;;;;;;;;;;;;;;21.82;38.88;101263.27;106189;1287;74335;-80
2023/10/13 11:59:17;;;;;;;;;;;;;;;21.87;38.60;101255.98;106054;1289;59183;-80
2023/10/13 12:04:32;;;;;;;;;;;;;;;21.93;38.08;101256.60;104975;1287;71510;-81
2023/10/13 12:09:52;;;;;;;;;;;;;;;21.94;38.03;101262.64;104852;1288;61376;-81
2023/10/13 12:12:17;;;;;;;;;;;;;;;21.95;38.17;101258.52;105044;1288;59923;-81
2023/10/13 12:14:52;;;;;;;;;;;;;;;21.95;38.24;101258.30;104868;1288;61293;-81
2023/10/13 12:17:24;;;;;;;;;;;;;;;21.93;38.23;101257.67;104532;1287;74228;-81
2023/10/13 12:19:54;;;;;;;;;;;;;;;21.92;38.04;101257.62;104792;1288;61182;-81
2023/10/13 12:22:26;;;;;;;;;;;;;;;21.91;38.05;101259.80;104270;1288;63715;-80
2023/10/13 12:24:55;;;;;;;;;;;;;;;21.91;37.97;101261.96;104107;1288;72916;-80
2023/10/13 12:27:26;;;;;;;;;;;;;;;21.89;37.93;101261.70;104207;1287;74646;-80
2023/10/13 12:29:56;;;;;;;;;;;;;;;21.88;37.76;101260.73;104675;1286;61426;-81
2023/10/13 12:32:24;;;;;;;;;;;;;;;21.86;37.82;101262.67;104454;1288;61392;-80
2023/10/13 12:49:14;;;;;;;;;;;;;;;21.82;37.43;101265.27;104023;1296;74902;-81
2023/10/13 12:54:06;;;;;;;;;;;;;;;21.81;37.36;101271.08;103391;1293;59720;-81
2023/10/13 12:56:32;;;;;;;;;;;;;;;21.80;37.31;101267.02;103497;1296;61389;-80
2023/10/13 12:58:58;;;;;;;;;;;;;;;21.80;37.23;101266.50;103764;1296;61937;-80
2023/10/13 13:01:25;;;;;;;;;;;;;;;21.79;37.24;101270.45;103920;1294;61317;-80
2023/10/13 13:03:55;;;;;;;;;;;;;;;21.78;37.29;101271.25;104823;1294;61381;-80
2023/10/13 13:06:29;;;;;;;;;;;;;;;21.78;37.35;101270.05;105744;1293;73400;-80
2023/10/13 13:08:58;;;;;;;;;;;;;;;21.79;37.46;101269.40;105878;1291;74551;-81
2023/10/13 13:11:24;;;;;;;;;;;;;;;21.79;37.41;101265.27;104370;1292;61147;-81
2023/10/13 13:13:49;;;;;;;;;;;;;;;21.79;37.43;101258.98;103989;1294;61421;-81
2023/10/13 13:16:18;;;;;;;;;;;;;;;21.79;37.43;101255.77;104637;1288;60054;-81
2023/10/13 13:18:43;;;;;;;;;;;;;;;21.80;37.52;101254.67;104324;1291;74449;-80
2023/10/13 13:21:12;;;;;;;;;;;;;;;21.80;37.40;101251.23;104045;1287;61382;-80
2023/10/13 13:23:39;;;;;;;;;;;;;;;21.80;37.36;101248.35;104066;1290;61385;-80
2023/10/13 13:26:15;;;;;;;;;;;;;;;21.81;37.32;101240.99;104187;1287;72457;-80
2023/10/13 13:28:40;;;;;;;;;;;;;;;21.80;37.30;101241.90;104061;1288;74596;-80
2023/10/13 13:31:08;;;;;;;;;;;;;;;21.82;37.16;101248.79;104089;1289;61378;-80
2023/10/13 13:33:38;;;;;;;;;;;;;;;21.84;37.16;101252.77;104281;1287;61337;-80
2023/10/13 13:36:07;;;;;;;;;;;;;;;21.86;37.07;101253.90;104292;1287;72770;-80
2023/10/13 13:38:33;;;;;;;;;;;;;;;21.87;36.87;101256.11;104244;1288;75672;-79
2023/10/13 13:41:02;;;;;;;;;;;;;;;21.88;36.85;101257.34;104194;1288;61419;-80
2023/10/13 13:43:35;;;;;;;;;;;;;;;21.87;36.89;101252.76;103923;1288;62020;-81
2023/10/13 13:46:02;;;;;;;;;;;;;;;21.86;36.90;101251.73;103756;1292;73477;-81
2023/10/13 13:48:27;;;;;;;;;;;;;;;21.85;36.96;101251.23;103876;1288;74238;-81
2023/10/13 13:51:03;;;;;;;;;;;;;;;21.85;36.92;101243.75;103869;1288;62241;-82
2023/10/13 13:53:34;;;;;;;;;;;;;;;21.83;36.89;101245.34;103709;1287;62060;-81
2023/10/13 13:56:02;;;;;;;;;;;;;;;21.82;36.92;101250.02;103832;1288;72563;-81
2023/10/13 13:58:28;;;;;;;;;;;;;;;21.81;36.97;101251.53;103674;1288;75663;-81
2023/10/13 14:01:11;;;;;;;;;;;;;;;21.80;36.86;101251.25;104022;1287;61789;-83
2023/10/13 14:03:44;;;;;;;;;;;;;;;21.78;37.31;101249.39;104245;1290;61453;-82
2023/10/13 14:06:23;;;;;;;;;;;;;;;21.81;37.61;101248.67;104179;1290;73456;-83
2023/10/13 14:08:48;;;;;;;;;;;;;;;21.83;37.80;101244.44;104246;1290;74502;-80
2023/10/13 14:14:03;;;;;;;;;;;;;;;21.84;37.97;101245.61;104450;1287;61266;-81
2023/10/13 14:16:29;;;;;;;;;;;;;;;21.83;37.83;101243.89;103954;1289;72990;-81
2023/10/13 14:18:55;;;;;;;;;;;;;;;21.83;37.91;101245.33;103866;1287;61328;-82
2023/10/13 14:21:24;;;;;;;;;;;;;;;21.81;37.78;101240.77;103488;1288;412063;-82
2023/10/13 14:23:54;;;;;;;;;;;;;;;21.81;37.67;101247.02;103879;1292;61294;-81
2023/10/13 14:26:39;;;;;;;;;;;;;;;;;;;;;
2023/10/13 14:29:08;;;;;;;;;;;;;;;21.80;37.72;101248.38;103549;1292;74561;-81
2023/10/13 14:31:34;;;;;;;;;;;;;;;21.79;37.57;101247.21;103668;1288;61175;-81
2023/10/13 14:33:59;;;;;;;;;;;;;;;21.78;37.55;101247.62;103568;1286;61929;-81
2023/10/13 14:36:28;;;;;;;;;;;;;;;21.78;37.65;101245.66;103602;1293;61401;-82
2023/10/13 14:38:54;;;;;;;;;;;;;;;21.76;37.59;101250.21;103604;1288;74315;-82
2023/10/13 14:41:19;;;;;;;;;;;;;;;21.75;37.58;101247.42;104216;1287;61359;-82
2023/10/13 14:43:47;;;;;;;;;;;;;;;21.75;37.45;101241.35;103350;1287;61283;-80
2023/10/13 14:46:25;;;;;;;;;;;;;;;21.74;37.60;101244.42;103809;1288;61414;-81
2023/10/13 14:48:54;;;;;;;;;;;;;;;21.74;37.43;101244.29;103655;1287;74469;-81
2023/10/13 14:51:19;;;;;;;;;;;;;;;21.74;37.45;101241.80;103611;1293;62450;-82
2023/10/13 14:53:45;;;;;;;;;;;;;;;21.73;37.64;101238.29;103537;1292;61328;-80
2023/10/13 14:56:11;;;;;;;;;;;;;;;21.73;37.52;101235.79;103496;1288;61407;-81
2023/10/13 14:58:42;;;;;;;;;;;;;;;21.72;37.48;101233.83;103851;1286;61432;-82
2023/10/13 15:01:17;;;;;;;;;;;;;;;21.72;37.54;101233.83;104253;1291;62331;-82
2023/10/13 15:03:43;;;;;;;;;;;;;;;21.73;37.99;101232.69;104781;1287;61664;-83
2023/10/13 15:06:17;;;;;;;;;;;;;;;21.74;38.58;101236.00;104737;1287;59425;-82
2023/10/13 15:08:45;;;;;;;;;;;;;;;21.77;38.81;101237.45;105145;1287;75087;-82
2023/10/13 15:11:14;;;;;;;;;;;;;;;21.78;38.64;101236.52;105311;1286;60125;-80
2023/10/13 15:13:40;;;;;;;;;;;;;;;21.79;38.70;101239.52;104750;1286;61285;-83
2023/10/13 15:16:18;;;;;;;;;;;;;;;21.78;38.63;101242.23;104791;1287;61288;-82
2023/10/13 15:18:45;;;;;;;;;;;;;;;21.78;38.55;101241.70;105097;1287;75655;-82
2023/10/13 15:21:11;;;;;;;;;;;;;;;21.79;38.57;101240.05;105491;1286;61455;-82
2023/10/13 15:23:45;;;;;;;;;;;;;;;21.79;38.47;101244.72;103993;1287;61372;-82
2023/10/13 15:26:12;;;;;;;;;;;;;;;21.79;38.28;101247.39;104036;1286;72617;-82
2023/10/13 15:28:38;;;;;;;;;;;;;;;21.78;38.55;101243.70;103730;1286;74338;-82
2023/10/13 15:31:22;;;;;;;;;;;;;;;21.77;38.33;101244.62;103953;1286;61139;-82
2023/10/13 15:33:52;;;;;;;;;;;;;;;21.77;38.43;101243.21;103714;1288;61379;-82
2023/10/13 15:36:19;;;;;;;;;;;;;;;21.76;38.30;101245.58;103495;1288;72421;-81
2023/10/13 15:38:46;;;;;;;;;;;;;;;21.75;38.30;101250.64;103280;1287;74296;-82
2023/10/13 15:41:12;;;;;;;;;;;;;;;21.74;38.27;101251.80;103388;1288;61269;-81
2023/10/13 15:43:42;;;;;;;;;;;;;;;21.73;38.34;101250.60;103284;1287;61369;-81
2023/10/13 15:46:15;;;;;;;;;;;;;;;21.73;38.27;101251.35;103215;1290;72382;-81
2023/10/13 15:48:40;;;;;;;;;;;;;;;21.74;38.34;101255.06;103065;1292;74226;-84
2023/10/13 15:51:10;;;;;;;;;;;;;;;21.74;38.30;101256.11;103200;1287;62436;-82
2023/10/13 15:53:38;;;;;;;;;;;;;;;21.74;38.39;101256.65;103179;1289;61291;-82
2023/10/13 15:56:06;;;;;;;;;;;;;;;21.74;38.36;101262.37;103036;1291;61433;-83